sensor_id;sensor_type;location;lat;lon;timestamp;pressure;altitude;pressure_sealevel;temperature;humidity
29935;BME280;19905;53.370;-6.314;2023-05-08T00:00:14;100967.50;;;13.92;100.00
29935;BME280;19905;53.370;-6.314;2023-05-08T00:02:42;100967.66;;;13.91;100.00
29935;BME280;19905;53.370;-6.314;2023-05-08T00:05:11;100958.31;;;13.96;100.00
29935;BME280;19905;53.370;-6.314;2023-05-08T00:07:40;100959.53;;;13.92;100.00
29935;BME280;19905;53.370;-6.314;2023-05-08T00:10:10;100954.50;;;13.89;100.00
29935;BME280;19905;53.370;-6.314;2023-05-08T00:12:39;100947.38;;;13.90;100.00
29935;BME280;19905;53.370;-6.314;2023-05-08T00:15:09;100946.25;;;13.92;100.00
29935;BME280;19905;53.370;-6.314;2023-05-08T00:17:37;100945.75;;;13.98;100.00
29935;BME280;19905;53.370;-6.314;2023-05-08T00:20:07;100954.31;;;14.02;100.00
29935;BME280;19905;53.370;-6.314;2023-05-08T00:22:36;100940.16;;;14.02;100.00
29935;BME280;19905;53.370;-6.314;2023-05-08T00:25:06;100941.56;;;14.06;100.00
29935;BME280;19905;53.370;-6.314;2023-05-08T00:27:36;100939.34;;;14.11;100.00
29935;BME280;19905;53.370;-6.314;2023-05-08T00:30:07;100931.25;;;14.12;100.00
29935;BME280;19905;53.370;-6.314;2023-05-08T00:32:36;100938.25;;;14.13;100.00
29935;BME280;19905;53.370;-6.314;2023-05-08T00:35:04;100925.22;;;14.10;100.00
29935;BME280;19905;53.370;-6.314;2023-05-08T00:37:34;100939.34;;;14.11;100.00
29935;BME280;19905;53.370;-6.314;2023-05-08T00:40:05;100934.59;;;14.05;100.00
29935;BME280;19905;53.370;-6.314;2023-05-08T00:42:33;100929.41;;;14.03;100.00
29935;BME280;19905;53.370;-6.314;2023-05-08T00:45:06;100934.59;;;14.05;100.00
29935;BME280;19905;53.370;-6.314;2023-05-08T00:47:35;100938.47;;;14.01;100.00
29935;BME280;19905;53.370;-6.314;2023-05-08T00:50:04;100925.91;;;14.03;100.00
29935;BME280;19905;53.370;-6.314;2023-05-08T00:52:33;100931.63;;;13.98;100.00
29935;BME280;19905;53.370;-6.314;2023-05-08T00:55:04;100935.81;;;14.01;100.00
29935;BME280;19905;53.370;-6.314;2023-05-08T00:57:32;100933.97;;;13.91;100.00
29935;BME280;19905;53.370;-6.314;2023-05-08T01:00:05;100939.81;;;13.85;100.00
29935;BME280;19905;53.370;-6.314;2023-05-08T01:02:34;100938.69;;;13.88;100.00
29935;BME280;19905;53.370;-6.314;2023-05-08T01:05:04;100936.09;;;13.97;100.00
29935;BME280;19905;53.370;-6.314;2023-05-08T01:07:33;100933.56;;;13.96;100.00
29935;BME280;19905;53.370;-6.314;2023-05-08T01:10:02;100921.41;;;13.93;100.00
29935;BME280;19905;53.370;-6.314;2023-05-08T01:12:37;100919.59;;;13.94;100.00
29935;BME280;19905;53.370;-6.314;2023-05-08T01:15:13;100916.66;;;13.97;100.00
29935;BME280;19905;53.370;-6.314;2023-05-08T01:17:52;100915.13;;;13.94;100.00
29935;BME280;19905;53.370;-6.314;2023-05-08T01:20:41;100910.06;;;13.91;100.00
29935;BME280;19905;53.370;-6.314;2023-05-08T01:26:34;100910.47;;;13.87;100.00
29935;BME280;19905;53.370;-6.314;2023-05-08T01:29:25;100907.94;;;13.85;100.00
29935;BME280;19905;53.370;-6.314;2023-05-08T01:32:12;100905.75;;;13.90;100.00
29935;BME280;19905;53.370;-6.314;2023-05-08T01:34:48;100906.81;;;13.88;100.00
29935;BME280;19905;53.370;-6.314;2023-05-08T01:37:27;100909.94;;;13.93;100.00
29935;BME280;19905;53.370;-6.314;2023-05-08T01:40:06;100909.66;;;13.96;100.00
29935;BME280;19905;53.370;-6.314;2023-05-08T01:42:48;100901.28;;;14.01;100.00
29935;BME280;19905;53.370;-6.314;2023-05-08T01:45:22;100903.53;;;14.05;100.00
29935;BME280;19905;53.370;-6.314;2023-05-08T01:48:02;100907.47;;;14.11;100.00
29935;BME280;19905;53.370;-6.314;2023-05-08T01:50:35;100899.66;;;14.09;100.00
29935;BME280;19905;53.370;-6.314;2023-05-08T01:53:09;100910.69;;;14.14;100.00
29935;BME280;19905;53.370;-6.314;2023-05-08T01:55:41;100904.69;;;14.12;100.00
29935;BME280;19905;53.370;-6.314;2023-05-08T01:58:11;100903.72;;;14.13;100.00
29935;BME280;19905;53.370;-6.314;2023-05-08T02:00:43;100891.41;;;14.12;100.00
29935;BME280;19905;53.370;-6.314;2023-05-08T02:03:15;100905.38;;;14.05;100.00
29935;BME280;19905;53.370;-6.314;2023-05-08T02:05:45;100908.03;;;14.05;100.00
29935;BME280;19905;53.370;-6.314;2023-05-08T02:08:17;100908.75;;;14.07;100.00
29935;BME280;19905;53.370;-6.314;2023-05-08T02:10:49;100904.78;;;14.01;100.00
29935;BME280;19905;53.370;-6.314;2023-05-08T02:13:20;100903.94;;;14.01;100.00
29935;BME280;19905;53.370;-6.314;2023-05-08T02:15:52;100907.00;;;13.96;100.00
29935;BME280;19905;53.370;-6.314;2023-05-08T02:18:24;100912.09;;;13.78;100.00
29935;BME280;19905;53.370;-6.314;2023-05-08T02:20:53;100900.34;;;13.71;100.00
29935;BME280;19905;53.370;-6.314;2023-05-08T02:23:25;100910.00;;;13.72;100.00
29935;BME280;19905;53.370;-6.314;2023-05-08T02:25:55;100912.25;;;13.77;100.00
29935;BME280;19905;53.370;-6.314;2023-05-08T02:28:26;100902.31;;;13.79;100.00
29935;BME280;19905;53.370;-6.314;2023-05-08T02:30:57;100904.34;;;13.96;100.00
29935;BME280;19905;53.370;-6.314;2023-05-08T02:33:28;100899.63;;;13.99;100.00
29935;BME280;19905;53.370;-6.314;2023-05-08T02:35:58;100906.75;;;13.99;100.00
29935;BME280;19905;53.370;-6.314;2023-05-08T02:38:27;100893.31;;;14.01;100.00
29935;BME280;19905;53.370;-6.314;2023-05-08T02:40:59;100898.63;;;14.01;100.00
29935;BME280;19905;53.370;-6.314;2023-05-08T02:43:29;100901.19;;;14.02;100.00
29935;BME280;19905;53.370;-6.314;2023-05-08T02:46:02;100892.50;;;14.00;100.00
29935;BME280;19905;53.370;-6.314;2023-05-08T02:48:37;100897.50;;;13.93;100.00
29935;BME280;19905;53.370;-6.314;2023-05-08T02:54:02;100888.84;;;14.01;100.00
29935;BME280;19905;53.370;-6.314;2023-05-08T02:56:36;100888.72;;;13.93;100.00
29935;BME280;19905;53.370;-6.314;2023-05-08T02:59:15;100887.44;;;13.97;100.00
29935;BME280;19905;53.370;-6.314;2023-05-08T03:01:49;100879.63;;;13.95;100.00
29935;BME280;19905;53.370;-6.314;2023-05-08T03:04:27;100896.97;;;13.99;100.00
29935;BME280;19905;53.370;-6.314;2023-05-08T03:06:57;100891.88;;;13.87;100.00
29935;BME280;19905;53.370;-6.314;2023-05-08T03:09:37;100893.00;;;13.84;100.00
29935;BME280;19905;53.370;-6.314;2023-05-08T03:12:10;100901.19;;;13.71;100.00
29935;BME280;19905;53.370;-6.314;2023-05-08T03:14:44;100903.84;;;13.71;100.00
29935;BME280;19905;53.370;-6.314;2023-05-08T03:17:16;100903.00;;;13.71;100.00
29935;BME280;19905;53.370;-6.314;2023-05-08T03:19:51;100895.88;;;13.71;100.00
29935;BME280;19905;53.370;-6.314;2023-05-08T03:22:22;100894.59;;;13.66;100.00
29935;BME280;19905;53.370;-6.314;2023-05-08T03:24:55;100896.97;;;13.69;100.00
29935;BME280;19905;53.370;-6.314;2023-05-08T03:27:28;100902.56;;;13.66;100.00
29935;BME280;19905;53.370;-6.314;2023-05-08T03:29:58;100891.81;;;13.67;100.00
29935;BME280;19905;53.370;-6.314;2023-05-08T03:32:30;100889.84;;;13.69;100.00
29935;BME280;19905;53.370;-6.314;2023-05-08T03:35:02;100876.84;;;13.66;100.00
29935;BME280;19905;53.370;-6.314;2023-05-08T03:37:32;100884.25;;;13.63;100.00
29935;BME280;19905;53.370;-6.314;2023-05-08T03:40:02;100876.41;;;13.61;100.00
29935;BME280;19905;53.370;-6.314;2023-05-08T03:42:31;100878.66;;;13.66;100.00
29935;BME280;19905;53.370;-6.314;2023-05-08T03:45:02;100872.78;;;13.62;100.00
29935;BME280;19905;53.370;-6.314;2023-05-08T03:47:31;100870.66;;;13.56;100.00
29935;BME280;19905;53.370;-6.314;2023-05-08T03:50:03;100867.63;;;13.61;100.00
29935;BME280;19905;53.370;-6.314;2023-05-08T03:52:31;100866.81;;;13.70;100.00
29935;BME280;19905;53.370;-6.314;2023-05-08T03:55:00;100867.06;;;13.67;100.00
29935;BME280;19905;53.370;-6.314;2023-05-08T03:57:33;100855.63;;;13.66;100.00
29935;BME280;19905;53.370;-6.314;2023-05-08T04:00:06;100855.72;;;13.65;100.00
29935;BME280;19905;53.370;-6.314;2023-05-08T04:02:41;100860.78;;;13.68;100.00
29935;BME280;19905;53.370;-6.314;2023-05-08T04:05:33;100857.72;;;13.72;100.00
29935;BME280;19905;53.370;-6.314;2023-05-08T04:08:10;100858.84;;;13.70;100.00
29935;BME280;19905;53.370;-6.314;2023-05-08T04:10:47;100852.03;;;13.77;100.00
29935;BME280;19905;53.370;-6.314;2023-05-08T04:13:19;100845.03;;;13.76;100.00
29935;BME280;19905;53.370;-6.314;2023-05-08T04:15:51;100841.66;;;13.74;100.00
29935;BME280;19905;53.370;-6.314;2023-05-08T04:18:23;100851.44;;;13.73;100.00
29935;BME280;19905;53.370;-6.314;2023-05-08T04:20:55;100846.31;;;13.82;100.00
29935;BME280;19905;53.370;-6.314;2023-05-08T04:23:25;100848.66;;;13.75;100.00
29935;BME280;19905;53.370;-6.314;2023-05-08T04:25:57;100855.66;;;13.76;100.00
29935;BME280;19905;53.370;-6.314;2023-05-08T04:28:27;100855.34;;;13.69;100.00
29935;BME280;19905;53.370;-6.314;2023-05-08T04:31:00;100853.97;;;13.75;100.00
29935;BME280;19905;53.370;-6.314;2023-05-08T04:33:32;100849.50;;;13.76;100.00
29935;BME280;19905;53.370;-6.314;2023-05-08T04:36:04;100847.84;;;13.75;100.00
29935;BME280;19905;53.370;-6.314;2023-05-08T04:38:35;100851.31;;;13.75;100.00
29935;BME280;19905;53.370;-6.314;2023-05-08T04:41:04;100843.47;;;13.73;100.00
29935;BME280;19905;53.370;-6.314;2023-05-08T04:43:33;100846.97;;;13.74;100.00
29935;BME280;19905;53.370;-6.314;2023-05-08T04:46:04;100857.47;;;13.76;100.00
29935;BME280;19905;53.370;-6.314;2023-05-08T04:48:33;100856.50;;;13.77;100.00
29935;BME280;19905;53.370;-6.314;2023-05-08T04:51:01;100863.47;;;13.78;100.00
29935;BME280;19905;53.370;-6.314;2023-05-08T04:53:31;100860.16;;;13.85;100.00
29935;BME280;19905;53.370;-6.314;2023-05-08T04:56:00;100856.78;;;13.83;100.00
29935;BME280;19905;53.370;-6.314;2023-05-08T04:58:29;100855.41;;;13.79;100.00
29935;BME280;19905;53.370;-6.314;2023-05-08T05:01:01;100854.84;;;13.85;100.00
29935;BME280;19905;53.370;-6.314;2023-05-08T05:03:30;100849.53;;;13.85;100.00
29935;BME280;19905;53.370;-6.314;2023-05-08T05:05:59;100847.88;;;13.84;100.00
29935;BME280;19905;53.370;-6.314;2023-05-08T05:08:28;100850.78;;;13.81;100.00
29935;BME280;19905;53.370;-6.314;2023-05-08T05:10:58;100852.06;;;13.87;100.00
29935;BME280;19905;53.370;-6.314;2023-05-08T05:13:30;100857.31;;;13.77;100.00
29935;BME280;19905;53.370;-6.314;2023-05-08T05:15:58;100864.63;;;13.85;100.00
29935;BME280;19905;53.370;-6.314;2023-05-08T05:18:27;100866.44;;;13.84;100.00
29935;BME280;19905;53.370;-6.314;2023-05-08T05:20:57;100863.06;;;13.82;100.00
29935;BME280;19905;53.370;-6.314;2023-05-08T05:23:31;100865.88;;;13.81;100.00
29935;BME280;19905;53.370;-6.314;2023-05-08T05:26:01;100858.06;;;13.79;100.00
29935;BME280;19905;53.370;-6.314;2023-05-08T05:28:30;100872.56;;;13.75;100.00
29935;BME280;19905;53.370;-6.314;2023-05-08T05:30:59;100863.22;;;13.81;100.00
29935;BME280;19905;53.370;-6.314;2023-05-08T05:33:28;100865.72;;;13.82;100.00
29935;BME280;19905;53.370;-6.314;2023-05-08T05:35:56;100866.13;;;13.78;100.00
29935;BME280;19905;53.370;-6.314;2023-05-08T05:38:25;100868.66;;;13.79;100.00
29935;BME280;19905;53.370;-6.314;2023-05-08T05:40:54;100872.59;;;13.85;100.00
29935;BME280;19905;53.370;-6.314;2023-05-08T05:43:24;100870.94;;;13.84;100.00
29935;BME280;19905;53.370;-6.314;2023-05-08T05:45:53;100881.22;;;13.77;100.00
29935;BME280;19905;53.370;-6.314;2023-05-08T05:48:22;100880.38;;;13.77;100.00
29935;BME280;19905;53.370;-6.314;2023-05-08T05:50:50;100874.94;;;13.78;100.00
29935;BME280;19905;53.370;-6.314;2023-05-08T05:53:20;100880.38;;;13.77;100.00
29935;BME280;19905;53.370;-6.314;2023-05-08T05:55:49;100889.38;;;13.85;100.00
29935;BME280;19905;53.370;-6.314;2023-05-08T05:58:19;100888.38;;;13.86;100.00
29935;BME280;19905;53.370;-6.314;2023-05-08T06:00:49;100893.84;;;13.85;100.00
29935;BME280;19905;53.370;-6.314;2023-05-08T06:03:18;100883.25;;;13.94;100.00
29935;BME280;19905;53.370;-6.314;2023-05-08T06:05:47;100891.50;;;14.01;100.00
29935;BME280;19905;53.370;-6.314;2023-05-08T06:08:16;100875.13;;;13.96;100.00
29935;BME280;19905;53.370;-6.314;2023-05-08T06:10:45;100882.13;;;13.97;100.00
29935;BME280;19905;53.370;-6.314;2023-05-08T06:13:14;100878.38;;;13.99;100.00
29935;BME280;19905;53.370;-6.314;2023-05-08T06:15:42;100884.78;;;13.97;100.00
29935;BME280;19905;53.370;-6.314;2023-05-08T06:18:13;100881.03;;;13.99;100.00
29935;BME280;19905;53.370;-6.314;2023-05-08T06:20:42;100885.25;;;14.02;100.00
29935;BME280;19905;53.370;-6.314;2023-05-08T06:23:13;100888.44;;;14.06;100.00
29935;BME280;19905;53.370;-6.314;2023-05-08T06:25:42;100882.72;;;14.10;100.00
29935;BME280;19905;53.370;-6.314;2023-05-08T06:28:12;100877.13;;;14.04;100.00
29935;BME280;19905;53.370;-6.314;2023-05-08T06:30:40;100885.69;;;14.07;100.00
29935;BME280;19905;53.370;-6.314;2023-05-08T06:33:09;100878.53;;;14.08;100.00
29935;BME280;19905;53.370;-6.314;2023-05-08T06:35:45;100887.78;;;14.13;100.00
29935;BME280;19905;53.370;-6.314;2023-05-08T06:38:13;100885.28;;;14.12;100.00
29935;BME280;19905;53.370;-6.314;2023-05-08T06:40:42;100876.75;;;14.18;100.00
29935;BME280;19905;53.370;-6.314;2023-05-08T06:43:11;100885.81;;;14.15;100.00
29935;BME280;19905;53.370;-6.314;2023-05-08T06:45:42;100883.63;;;14.20;100.00
29935;BME280;19905;53.370;-6.314;2023-05-08T06:48:11;100879.25;;;14.19;100.00
29935;BME280;19905;53.370;-6.314;2023-05-08T06:50:44;100877.16;;;14.23;100.00
29935;BME280;19905;53.370;-6.314;2023-05-08T06:53:15;100880.00;;;14.31;100.00
29935;BME280;19905;53.370;-6.314;2023-05-08T06:55:44;100869.22;;;14.33;100.00
29935;BME280;19905;53.370;-6.314;2023-05-08T06:58:13;100884.16;;;14.24;100.00
29935;BME280;19905;53.370;-6.314;2023-05-08T07:00:41;100878.03;;;14.33;100.00
29935;BME280;19905;53.370;-6.314;2023-05-08T07:03:10;100873.44;;;14.35;100.00
29935;BME280;19905;53.370;-6.314;2023-05-08T07:05:39;100873.44;;;14.45;100.00
29935;BME280;19905;53.370;-6.314;2023-05-08T07:08:09;100866.16;;;14.37;100.00
29935;BME280;19905;53.370;-6.314;2023-05-08T07:10:38;100865.72;;;14.42;100.00
29935;BME280;19905;53.370;-6.314;2023-05-08T07:13:07;100862.09;;;14.43;100.00
29935;BME280;19905;53.370;-6.314;2023-05-08T07:15:35;100862.09;;;14.43;100.00
29935;BME280;19905;53.370;-6.314;2023-05-08T07:18:04;100853.31;;;14.52;100.00
29935;BME280;19905;53.370;-6.314;2023-05-08T07:20:33;100857.94;;;14.60;100.00
29935;BME280;19905;53.370;-6.314;2023-05-08T07:23:03;100848.97;;;14.70;100.00
29935;BME280;19905;53.370;-6.314;2023-05-08T07:25:34;100855.56;;;14.76;100.00
29935;BME280;19905;53.370;-6.314;2023-05-08T07:28:03;100859.19;;;14.94;100.00
29935;BME280;19905;53.370;-6.314;2023-05-08T07:30:31;100845.19;;;14.92;100.00
29935;BME280;19905;53.370;-6.314;2023-05-08T07:32:59;100848.25;;;14.97;100.00
29935;BME280;19905;53.370;-6.314;2023-05-08T07:35:28;100843.91;;;15.06;100.00
29935;BME280;19905;53.370;-6.314;2023-05-08T07:37:56;100845.06;;;15.04;100.00
29935;BME280;19905;53.370;-6.314;2023-05-08T07:40:25;100837.19;;;15.02;100.00
29935;BME280;19905;53.370;-6.314;2023-05-08T07:42:55;100832.00;;;15.10;100.00
29935;BME280;19905;53.370;-6.314;2023-05-08T07:45:24;100835.63;;;15.19;100.00
29935;BME280;19905;53.370;-6.314;2023-05-08T07:47:54;100832.50;;;15.33;100.00
29935;BME280;19905;53.370;-6.314;2023-05-08T07:50:24;100821.16;;;15.31;100.00
29935;BME280;19905;53.370;-6.314;2023-05-08T07:52:53;100834.16;;;15.34;100.00
29935;BME280;19905;53.370;-6.314;2023-05-08T07:55:21;100831.19;;;15.47;100.00
29935;BME280;19905;53.370;-6.314;2023-05-08T07:57:50;100834.72;;;15.38;100.00
29935;BME280;19905;53.370;-6.314;2023-05-08T08:00:23;100845.97;;;15.32;100.00
29935;BME280;19905;53.370;-6.314;2023-05-08T08:02:53;100850.13;;;15.34;100.00
29935;BME280;19905;53.370;-6.314;2023-05-08T08:05:22;100850.97;;;15.44;100.00
29935;BME280;19905;53.370;-6.314;2023-05-08T08:07:50;100847.13;;;15.57;100.00
29935;BME280;19905;53.370;-6.314;2023-05-08T08:10:19;100846.03;;;15.49;100.00
29935;BME280;19905;53.370;-6.314;2023-05-08T08:12:48;100840.56;;;15.51;100.00
29935;BME280;19905;53.370;-6.314;2023-05-08T08:15:17;100840.28;;;15.64;100.00
29935;BME280;19905;53.370;-6.314;2023-05-08T08:17:47;100841.38;;;15.61;100.00
29935;BME280;19905;53.370;-6.314;2023-05-08T08:20:15;100852.22;;;15.50;100.00
29935;BME280;19905;53.370;-6.314;2023-05-08T08:22:44;100845.00;;;15.60;100.00
29935;BME280;19905;53.370;-6.314;2023-05-08T08:25:12;100843.91;;;15.63;100.00
29935;BME280;19905;53.370;-6.314;2023-05-08T08:27:41;100836.13;;;15.79;100.00
29935;BME280;19905;53.370;-6.314;2023-05-08T08:30:10;100840.50;;;15.70;100.00
29935;BME280;19905;53.370;-6.314;2023-05-08T08:32:44;100824.84;;;15.67;100.00
29935;BME280;19905;53.370;-6.314;2023-05-08T08:35:15;100817.88;;;15.84;100.00
29935;BME280;19905;53.370;-6.314;2023-05-08T08:37:43;100815.41;;;16.00;100.00
29935;BME280;19905;53.370;-6.314;2023-05-08T08:40:12;100811.56;;;16.13;100.00
29935;BME280;19905;53.370;-6.314;2023-05-08T08:42:41;100803.94;;;16.18;100.00
29935;BME280;19905;53.370;-6.314;2023-05-08T08:45:10;100816.94;;;16.21;100.00
29935;BME280;19905;53.370;-6.314;2023-05-08T08:47:41;100810.84;;;16.11;100.00
29935;BME280;19905;53.370;-6.314;2023-05-08T08:50:14;100802.31;;;16.25;100.00
29935;BME280;19905;53.370;-6.314;2023-05-08T08:52:50;100806.59;;;16.18;100.00
29935;BME280;19905;53.370;-6.314;2023-05-08T08:55:21;100796.25;;;16.15;100.00
29935;BME280;19905;53.370;-6.314;2023-05-08T08:58:00;100801.94;;;16.20;100.00
29935;BME280;19905;53.370;-6.314;2023-05-08T09:00:31;100789.97;;;16.06;100.00
29935;BME280;19905;53.370;-6.314;2023-05-08T09:03:01;100812.78;;;16.18;100.00
29935;BME280;19905;53.370;-6.314;2023-05-08T09:05:31;100820.97;;;16.07;100.00
29935;BME280;19905;53.370;-6.314;2023-05-08T09:08:00;100818.75;;;15.75;100.00
29935;BME280;19905;53.370;-6.314;2023-05-08T09:10:30;100839.97;;;15.57;100.00
29935;BME280;19905;53.370;-6.314;2023-05-08T09:12:59;100846.91;;;15.40;100.00
29935;BME280;19905;53.370;-6.314;2023-05-08T09:15:27;100856.31;;;15.25;100.00
29935;BME280;19905;53.370;-6.314;2023-05-08T09:17:56;100860.56;;;15.18;100.00
29935;BME280;19905;53.370;-6.314;2023-05-08T09:20:24;100866.41;;;15.31;100.00
29935;BME280;19905;53.370;-6.314;2023-05-08T09:22:54;100864.72;;;15.40;100.00
29935;BME280;19905;53.370;-6.314;2023-05-08T09:25:25;100882.03;;;15.44;100.00
29935;BME280;19905;53.370;-6.314;2023-05-08T09:28:14;100871.72;;;15.41;100.00
29935;BME280;19905;53.370;-6.314;2023-05-08T09:30:51;100882.78;;;15.36;100.00
29935;BME280;19905;53.370;-6.314;2023-05-08T09:33:21;100892.50;;;15.18;100.00
29935;BME280;19905;53.370;-6.314;2023-05-08T09:35:52;100908.19;;;14.92;100.00
29935;BME280;19905;53.370;-6.314;2023-05-08T09:38:34;100906.94;;;14.67;100.00
29935;BME280;19905;53.370;-6.314;2023-05-08T09:41:10;100909.03;;;14.63;100.00
29935;BME280;19905;53.370;-6.314;2023-05-08T09:43:42;100909.59;;;14.67;100.00
29935;BME280;19905;53.370;-6.314;2023-05-08T09:46:20;100911.94;;;14.70;100.00
29935;BME280;19905;53.370;-6.314;2023-05-08T09:48:50;100912.09;;;14.97;100.00
29935;BME280;19905;53.370;-6.314;2023-05-08T09:51:20;100911.34;;;15.34;100.00
29935;BME280;19905;53.370;-6.314;2023-05-08T09:53:51;100906.00;;;15.54;100.00
29935;BME280;19905;53.370;-6.314;2023-05-08T09:56:33;100909.22;;;15.47;100.00
29935;BME280;19905;53.370;-6.314;2023-05-08T09:59:21;100916.34;;;15.57;100.00
29935;BME280;19905;53.370;-6.314;2023-05-08T10:01:50;100918.19;;;15.56;100.00
29935;BME280;19905;53.370;-6.314;2023-05-08T10:04:30;100902.75;;;15.60;100.00
29935;BME280;19905;53.370;-6.314;2023-05-08T10:06:59;100890.97;;;15.72;100.00
29935;BME280;19905;53.370;-6.314;2023-05-08T10:09:30;100871.19;;;15.74;100.00
29935;BME280;19905;53.370;-6.314;2023-05-08T10:12:17;100850.00;;;15.83;100.00
29935;BME280;19905;53.370;-6.314;2023-05-08T10:14:48;100831.88;;;16.14;100.00
29935;BME280;19905;53.370;-6.314;2023-05-08T10:17:22;100829.81;;;16.43;100.00
29935;BME280;19905;53.370;-6.314;2023-05-08T10:19:57;100823.03;;;16.67;100.00
29935;BME280;19905;53.370;-6.314;2023-05-08T10:22:27;100824.94;;;16.57;100.00
29935;BME280;19905;53.370;-6.314;2023-05-08T10:24:59;100818.69;;;16.66;100.00
29935;BME280;19905;53.370;-6.314;2023-05-08T10:27:37;100809.19;;;16.45;100.00
29935;BME280;19905;53.370;-6.314;2023-05-08T10:30:10;100821.38;;;16.66;100.00
29935;BME280;19905;53.370;-6.314;2023-05-08T10:32:43;100815.72;;;16.69;100.00
29935;BME280;19905;53.370;-6.314;2023-05-08T10:35:14;100815.44;;;16.72;100.00
29935;BME280;19905;53.370;-6.314;2023-05-08T10:37:43;100803.59;;;16.92;100.00
29935;BME280;19905;53.370;-6.314;2023-05-08T10:40:14;100805.81;;;16.97;100.00
29935;BME280;19905;53.370;-6.314;2023-05-08T10:42:44;100809.41;;;16.88;100.00
29935;BME280;19905;53.370;-6.314;2023-05-08T10:45:14;100815.13;;;16.93;100.00
29935;BME280;19905;53.370;-6.314;2023-05-08T10:47:53;100814.44;;;16.91;100.00
29935;BME280;19905;53.370;-6.314;2023-05-08T10:50:38;100811.38;;;16.86;100.00
29935;BME280;19905;53.370;-6.314;2023-05-08T10:53:14;100808.81;;;16.76;100.00
29935;BME280;19905;53.370;-6.314;2023-05-08T10:55:49;100819.84;;;16.81;100.00
29935;BME280;19905;53.370;-6.314;2023-05-08T10:58:29;100820.06;;;16.88;100.00
29935;BME280;19905;53.370;-6.314;2023-05-08T11:01:16;100824.66;;;16.95;100.00
29935;BME280;19905;53.370;-6.314;2023-05-08T11:03:48;100819.25;;;16.87;100.00
29935;BME280;19905;53.370;-6.314;2023-05-08T11:06:41;100817.97;;;16.99;100.00
29935;BME280;19905;53.370;-6.314;2023-05-08T11:09:17;100813.59;;;17.16;100.00
29935;BME280;19905;53.370;-6.314;2023-05-08T11:12:05;100801.66;;;17.28;100.00
29935;BME280;19905;53.370;-6.314;2023-05-08T11:14:38;100798.28;;;17.52;100.00
29935;BME280;19905;53.370;-6.314;2023-05-08T11:17:09;100787.53;;;17.44;100.00
29935;BME280;19905;53.370;-6.314;2023-05-08T11:19:54;100789.59;;;17.50;100.00
29935;BME280;19905;53.370;-6.314;2023-05-08T11:22:25;100787.25;;;17.47;100.00
29935;BME280;19905;53.370;-6.314;2023-05-08T11:25:00;100784.88;;;17.44;100.00
29935;BME280;19905;53.370;-6.314;2023-05-08T11:27:37;100777.59;;;17.63;100.00
29935;BME280;19905;53.370;-6.314;2023-05-08T11:30:21;100775.41;;;17.92;100.00
29935;BME280;19905;53.370;-6.314;2023-05-08T11:33:13;100766.78;;;18.31;100.00
29935;BME280;19905;53.370;-6.314;2023-05-08T11:35:47;100766.44;;;18.34;100.00
29935;BME280;19905;53.370;-6.314;2023-05-08T11:38:28;100756.75;;;18.41;100.00
29935;BME280;19905;53.370;-6.314;2023-05-08T11:40:58;100748.91;;;18.56;100.00
29935;BME280;19905;53.370;-6.314;2023-05-08T11:43:52;100733.50;;;18.50;100.00
29935;BME280;19905;53.370;-6.314;2023-05-08T11:46:22;100730.50;;;18.77;100.00
29935;BME280;19905;53.370;-6.314;2023-05-08T11:48:57;100722.75;;;18.99;100.00
29935;BME280;19905;53.370;-6.314;2023-05-08T11:51:30;100713.38;;;19.03;100.00
29935;BME280;19905;53.370;-6.314;2023-05-08T11:53:59;100725.75;;;19.04;100.00
29935;BME280;19905;53.370;-6.314;2023-05-08T11:56:28;100724.91;;;19.03;100.00
29935;BME280;19905;53.370;-6.314;2023-05-08T11:59:04;100721.41;;;19.03;100.00
29935;BME280;19905;53.370;-6.314;2023-05-08T12:01:33;100725.78;;;18.96;100.00
29935;BME280;19905;53.370;-6.314;2023-05-08T12:04:03;100736.84;;;18.93;100.00
29935;BME280;19905;53.370;-6.314;2023-05-08T12:06:34;100738.50;;;18.86;100.00
29935;BME280;19905;53.370;-6.314;2023-05-08T12:09:10;100730.09;;;19.05;100.00
29935;BME280;19905;53.370;-6.314;2023-05-08T12:11:38;100724.22;;;19.10;100.00
29935;BME280;19905;53.370;-6.314;2023-05-08T12:14:11;100707.41;;;19.32;100.00
29935;BME280;19905;53.370;-6.314;2023-05-08T12:16:41;100696.75;;;19.55;100.00
29935;BME280;19905;53.370;-6.314;2023-05-08T12:19:10;100686.06;;;19.47;100.00
29935;BME280;19905;53.370;-6.314;2023-05-08T12:21:45;100679.91;;;19.77;100.00
29935;BME280;19905;53.370;-6.314;2023-05-08T12:24:15;100670.97;;;19.85;100.00
29935;BME280;19905;53.370;-6.314;2023-05-08T12:26:52;100674.16;;;20.49;100.00
29935;BME280;19905;53.370;-6.314;2023-05-08T12:29:23;100676.50;;;20.82;100.00
29935;BME280;19905;53.370;-6.314;2023-05-08T12:31:54;100678.84;;;20.47;100.00
29935;BME280;19905;53.370;-6.314;2023-05-08T12:34:23;100680.13;;;19.91;100.00
29935;BME280;19905;53.370;-6.314;2023-05-08T12:37:01;100668.63;;;20.05;100.00
29935;BME280;19905;53.370;-6.314;2023-05-08T12:39:34;100677.00;;;20.48;100.00
29935;BME280;19905;53.370;-6.314;2023-05-08T12:42:04;100663.78;;;20.23;100.00
29935;BME280;19905;53.370;-6.314;2023-05-08T12:44:34;100662.34;;;20.36;100.00
29935;BME280;19905;53.370;-6.314;2023-05-08T12:47:04;100652.22;;;20.23;100.00
29935;BME280;19905;53.370;-6.314;2023-05-08T12:49:32;100655.19;;;19.67;100.00
29935;BME280;19905;53.370;-6.314;2023-05-08T12:52:04;100657.09;;;19.82;100.00
29935;BME280;19905;53.370;-6.314;2023-05-08T12:54:35;100659.03;;;19.88;100.00
29935;BME280;19905;53.370;-6.314;2023-05-08T12:57:11;100663.56;;;19.87;100.00
29935;BME280;19905;53.370;-6.314;2023-05-08T12:59:43;100660.03;;;20.10;100.00